This is the latest recevied weather packets stored in our database for station/object AA0PB. If no packets are shown the sender has not sent any weather packets the latest 10 day(s).
| Time | Temp. | Humidity | Pressure | Rain* | Wind** | Luminosity | Snow |
|---|---|---|---|---|---|---|---|
| 1777906315 | 14.44° C | 82% | 1013.5 hPa | 0 mm | - | 66 W/m² | - |
| 1777906012 | 13.89° C | 84% | 1013.5 hPa | 0 mm | - | 141 W/m² | - |
| 1777905708 | 13.89° C | 85% | 1013.6 hPa | 0 mm | - | 58 W/m² | - |
| 1777905405 | 13.89° C | 86% | 1013.4 hPa | 0 mm | - | 57 W/m² | - |
| 1777905103 | 13.89° C | 86% | 1013.2 hPa | 0 mm | - | 56 W/m² | - |
| 1777904800 | 13.33° C | 86% | 1013.2 hPa | 0 mm | - | 105 W/m² | - |
| 1777904497 | 13.89° C | 86% | 1013.1 hPa | 0 mm | - | 54 W/m² | - |
| 1777904193 | 13.33° C | 87% | 1013 hPa | 0 mm | - | 76 W/m² | - |
| 1777903891 | 13.33° C | 88% | 1013 hPa | 0 mm | - | 48 W/m² | - |
| 1777903588 | 12.78° C | 88% | 1013 hPa | 0 mm | - | 52 W/m² | - |
| 1777903283 | 12.78° C | 89% | 1012.9 hPa | 0 mm | - | 58 W/m² | - |
| 1777902980 | 12.78° C | 90% | 1012.9 hPa | 0 mm | - | 41 W/m² | - |
| 1777902677 | 12.22° C | 91% | 1013.2 hPa | 0 mm | - | 38 W/m² | - |
| 1777902374 | 12.22° C | 92% | 1012.8 hPa | 0 mm | - | 37 W/m² | - |
| 1777902070 | 11.67° C | 92% | 1012.6 hPa | 0 mm | - | 31 W/m² | - |
| 1777901769 | 11.67° C | 93% | 1012.5 hPa | 0 mm | - | 24 W/m² | - |
| 1777901466 | 11.67° C | 93% | 1012.4 hPa | 0 mm | - | 21 W/m² | - |
| 1777901164 | 11.67° C | 93% | 1012.4 hPa | 0 mm | - | 18 W/m² | - |
| 1777900861 | 11.67° C | 93% | 1012.5 hPa | 0 mm | - | 15 W/m² | - |
| 1777900558 | 11.67° C | 93% | 1012.2 hPa | 0 mm | - | 12 W/m² | - |
| 1777900255 | 11.67° C | 93% | 1012.2 hPa | 0 mm | - | 9 W/m² | - |
| 1777899951 | 11.67° C | 93% | 1012.2 hPa | 0 mm | - | 6 W/m² | - |
| 1777899648 | 11.67° C | 92% | 1012.1 hPa | 0 mm | - | 4 W/m² | - |
| 1777899346 | 11.67° C | 92% | 1012.1 hPa | 0 mm | - | 3 W/m² | - |
| 1777899044 | 11.67° C | 92% | 1012.1 hPa | 0 mm | - | 1 W/m² | - |
* Rain latest hour (hover to see other rain measurements)
** Current wind speed in m/s (hover to see current wind gust speed)